Time;durP1;ratioP1;P1;durP2;ratioP2;P2;SDS_P1;SDS_P2;PMS_P1;PMS_P2;Temp;Humidity;BMP_temperature;BMP_pressure;BME280_temperature;BME280_humidity;BME280_pressure;Samples;Min_cycle;Max_cycle;Signal;HPM_P1;HPM_P2
2023/11/20 00:01:22;;;;;;;8.33;3.00;;;10.80;99.90;;;;;;6224164;23;20527;-60
2023/11/20 00:03:51;;;;;;;9.93;3.00;;;10.80;99.90;;;;;;6222391;23;20471;-59
2023/11/20 00:06:17;;;;;;;10.63;3.70;;;10.80;99.90;;;;;;6223688;23;20470;-59
2023/11/20 00:08:43;;;;;;;5.90;2.73;;;10.80;99.90;;;;;;6223025;23;20411;-59
2023/11/20 00:11:13;;;;;;;6.33;3.00;;;10.80;99.90;;;;;;6221631;23;20459;-59
2023/11/20 00:13:39;;;;;;;13.33;2.77;;;10.80;99.90;;;;;;6223152;23;20414;-59
2023/11/20 00:16:07;;;;;;;6.67;3.13;;;10.70;99.90;;;;;;6223853;23;20415;-57
2023/11/20 00:18:34;;;;;;;6.23;2.70;;;10.70;99.90;;;;;;6222081;23;20490;-60
2023/11/20 00:21:02;;;;;;;9.07;3.70;;;10.70;99.90;;;;;;6224654;23;20435;-59
2023/11/20 00:23:29;;;;;;;10.03;2.47;;;10.70;99.90;;;;;;6225154;23;20408;-59
2023/11/20 00:25:56;;;;;;;4.43;2.70;;;10.70;99.90;;;;;;6222981;23;20466;-59
2023/11/20 00:28:23;;;;;;;8.53;3.03;;;10.60;99.90;;;;;;6220008;23;20443;-60
2023/11/20 00:30:50;;;;;;;8.53;3.13;;;10.70;99.90;;;;;;6223920;23;20427;-55
2023/11/20 00:33:17;;;;;;;11.37;3.23;;;10.70;99.90;;;;;;6223542;23;20420;-59
2023/11/20 00:35:44;;;;;;;7.17;2.57;;;10.70;99.90;;;;;;6223256;23;20851;-59
2023/11/20 00:38:12;;;;;;;7.80;2.53;;;10.70;99.90;;;;;;6223765;23;20404;-57
2023/11/20 00:40:41;;;;;;;5.80;3.00;;;10.70;99.90;;;;;;6223418;23;20458;-60
2023/11/20 00:43:07;;;;;;;7.20;2.60;;;10.70;99.90;;;;;;6224122;23;20399;-59
2023/11/20 00:45:34;;;;;;;7.90;2.40;;;10.60;99.90;;;;;;6223433;23;20403;-60
2023/11/20 00:48:01;;;;;;;12.73;2.97;;;10.60;99.90;;;;;;6222898;23;20428;-59
2023/11/20 00:50:28;;;;;;;3.17;2.60;;;10.60;99.90;;;;;;6223710;23;20420;-57
2023/11/20 00:52:55;;;;;;;4.63;2.93;;;10.60;99.90;;;;;;6222740;23;20400;-58
2023/11/20 00:55:24;;;;;;;5.97;2.87;;;10.60;99.90;;;;;;6223536;23;20408;-60
2023/11/20 00:57:50;;;;;;;17.57;2.70;;;10.60;99.90;;;;;;6222454;23;20436;-58
2023/11/20 01:00:18;;;;;;;5.80;2.80;;;10.60;99.90;;;;;;6222153;23;20435;-59
2023/11/20 01:02:46;;;;;;;7.70;2.90;;;10.60;99.90;;;;;;6223889;23;20404;-61
2023/11/20 01:05:13;;;;;;;5.13;2.70;;;10.60;99.90;;;;;;6224438;23;20404;-59
2023/11/20 01:07:40;;;;;;;10.50;2.40;;;10.70;99.90;;;;;;6223336;23;20438;-59
2023/11/20 01:10:09;;;;;;;5.47;3.53;;;10.70;99.90;;;;;;6223410;23;20408;-58
2023/11/20 01:12:37;;;;;;;9.97;3.60;;;10.70;99.90;;;;;;6224079;23;20867;-57
2023/11/20 01:15:05;;;;;;;13.03;2.27;;;10.70;99.90;;;;;;6223511;23;20435;-59
2023/11/20 01:17:32;;;;;;;9.60;4.03;;;10.70;99.90;;;;;;6223665;23;20432;-59
2023/11/20 01:19:59;;;;;;;6.90;2.23;;;10.70;99.90;;;;;;6223416;23;20435;-59
2023/11/20 01:22:26;;;;;;;5.10;2.10;;;10.70;99.90;;;;;;6222977;23;20427;-59
2023/11/20 01:24:53;;;;;;;10.23;3.20;;;10.60;99.90;;;;;;6224794;23;20376;-61
2023/11/20 01:27:19;;;;;;;7.07;3.00;;;10.60;99.90;;;;;;6222395;23;20428;-60
2023/11/20 01:29:48;;;;;;;4.53;2.10;;;10.60;99.90;;;;;;6223297;23;20400;-60
2023/11/20 01:32:15;;;;;;;6.13;3.10;;;10.70;99.90;;;;;;6223472;23;20420;-58
2023/11/20 01:34:42;;;;;;;9.10;2.60;;;10.70;99.90;;;;;;6223360;23;20407;-58
2023/11/20 01:37:09;;;;;;;7.20;2.60;;;10.60;99.90;;;;;;6221540;23;20467;-56
2023/11/20 01:39:38;;;;;;;5.23;2.00;;;10.60;99.90;;;;;;6221934;23;20390;-59
2023/11/20 01:42:06;;;;;;;8.47;2.90;;;10.60;99.90;;;;;;6223258;23;20693;-59
2023/11/20 01:44:33;;;;;;;7.50;2.23;;;10.60;99.90;;;;;;6222894;23;20720;-58
2023/11/20 01:47:02;;;;;;;10.20;2.40;;;10.60;99.90;;;;;;6223436;23;20415;-58
2023/11/20 01:49:30;;;;;;;5.70;2.70;;;10.60;99.90;;;;;;6224672;23;20408;-58
2023/11/20 01:51:58;;;;;;;4.50;1.87;;;10.60;99.90;;;;;;6223069;23;20434;-59
2023/11/20 01:54:25;;;;;;;3.30;2.17;;;10.60;99.90;;;;;;6224146;23;20415;-59
2023/11/20 01:56:53;;;;;;;6.83;2.00;;;10.60;99.90;;;;;;6222850;23;20438;-57
2023/11/20 01:59:20;;;;;;;8.60;2.37;;;10.50;99.90;;;;;;6224182;23;20424;-59
2023/11/20 02:01:47;;;;;;;4.60;2.37;;;10.50;99.90;;;;;;6222361;23;20451;-59
2023/11/20 02:04:15;;;;;;;9.47;2.60;;;10.60;99.90;;;;;;6221521;23;20411;-58
2023/11/20 02:06:42;;;;;;;3.90;2.13;;;10.50;99.90;;;;;;6221202;23;20470;-58
2023/11/20 02:09:09;;;;;;;3.30;1.70;;;10.50;99.90;;;;;;6221560;23;20415;-59
2023/11/20 02:11:36;;;;;;;7.50;1.87;;;10.60;99.90;;;;;;6222817;23;20400;-62
2023/11/20 02:14:03;;;;;;;6.33;2.80;;;10.60;99.90;;;;;;6221537;23;20788;-59
2023/11/20 02:16:30;;;;;;;10.00;2.90;;;10.60;99.90;;;;;;6221663;23;20399;-58
2023/11/20 02:18:57;;;;;;;11.50;4.30;;;10.60;99.90;;;;;;6221908;23;20431;-58
2023/11/20 02:21:25;;;;;;;8.23;2.53;;;10.60;99.90;;;;;;6221417;23;20447;-62
2023/11/20 02:23:52;;;;;;;7.30;2.13;;;10.60;99.90;;;;;;6221901;23;20681;-59
2023/11/20 02:26:39;;;;;;;8.73;2.50;;;10.60;99.90;;;;;;6223116;23;20428;-59
2023/11/20 02:29:12;;;;;;;8.40;2.20;;;10.60;99.90;;;;;;6223548;23;20450;-61
2023/11/20 02:31:42;;;;;;;4.83;1.83;;;10.60;99.90;;;;;;6222317;23;20391;-58
2023/11/20 02:34:10;;;;;;;5.97;2.70;;;10.50;99.90;;;;;;6223380;23;20388;-60
2023/11/20 02:36:37;;;;;;;5.23;1.87;;;10.50;99.90;;;;;;6224101;23;20380;-61
2023/11/20 02:39:04;;;;;;;4.60;1.77;;;10.50;99.90;;;;;;6223070;23;20404;-60
2023/11/20 02:41:31;;;;;;;5.23;1.87;;;10.50;99.90;;;;;;6221295;23;20702;-57
2023/11/20 02:43:58;;;;;;;5.97;2.00;;;10.50;99.90;;;;;;6220681;23;20408;-60
2023/11/20 02:46:24;;;;;;;4.50;2.37;;;10.50;99.90;;;;;;6217933;23;20415;-61
2023/11/20 02:48:53;;;;;;;2.80;1.63;;;10.50;99.90;;;;;;6219127;23;20424;-61
2023/11/20 02:51:19;;;;;;;2.90;1.70;;;10.50;99.90;;;;;;6222568;23;20423;-59
2023/11/20 02:53:46;;;;;;;8.70;2.40;;;10.50;99.90;;;;;;6222514;23;20696;-60
2023/11/20 02:56:13;;;;;;;12.63;2.67;;;10.50;99.90;;;;;;6216586;23;20428;-61
2023/11/20 02:58:40;;;;;;;1.73;1.53;;;10.50;99.90;;;;;;6216141;23;20412;-59
2023/11/20 03:01:09;;;;;;;5.90;2.07;;;10.60;99.90;;;;;;6216493;23;20521;-60
2023/11/20 03:03:36;;;;;;;4.73;1.77;;;10.60;99.90;;;;;;6216557;23;20428;-60
2023/11/20 03:06:06;;;;;;;8.57;2.20;;;10.60;99.90;;;;;;6216285;23;20487;-61
2023/11/20 03:08:33;;;;;;;6.30;2.00;;;10.60;99.90;;;;;;6217628;23;20431;-61
2023/11/20 03:11:00;;;;;;;4.23;1.77;;;10.60;99.90;;;;;;6218381;23;20419;-59
2023/11/20 03:13:27;;;;;;;3.67;2.17;;;10.50;99.90;;;;;;6218343;23;20400;-60
2023/11/20 03:15:54;;;;;;;5.90;1.53;;;10.50;99.90;;;;;;6217922;23;20486;-60
2023/11/20 03:18:20;;;;;;;5.33;1.70;;;10.60;99.90;;;;;;6218012;23;20490;-61
2023/11/20 03:20:47;;;;;;;4.07;2.03;;;10.60;99.90;;;;;;6217898;23;20897;-60
2023/11/20 03:23:16;;;;;;;2.67;1.50;;;10.50;99.90;;;;;;6218456;23;20432;-59
2023/11/20 03:25:43;;;;;;;3.07;1.33;;;10.60;99.90;;;;;;6218265;23;20498;-61
2023/11/20 03:28:10;;;;;;;5.53;2.17;;;10.50;99.90;;;;;;6218295;23;20451;-60
2023/11/20 03:30:37;;;;;;;6.20;1.73;;;10.50;99.90;;;;;;6217965;23;20400;-60
2023/11/20 03:33:03;;;;;;;2.30;1.50;;;10.50;99.90;;;;;;6218013;23;20486;-62
2023/11/20 03:35:30;;;;;;;6.63;1.83;;;10.50;99.90;;;;;;6217859;23;20462;-60
2023/11/20 03:37:57;;;;;;;7.30;1.90;;;10.50;99.90;;;;;;6218262;23;20442;-59
2023/11/20 03:40:25;;;;;;;4.93;1.40;;;10.50;99.90;;;;;;6218103;23;20474;-58
2023/11/20 03:42:56;;;;;;;4.17;1.93;;;10.50;99.90;;;;;;6218341;23;20404;-62
2023/11/20 03:45:23;;;;;;;3.43;1.60;;;10.50;99.90;;;;;;6224797;23;20855;-60
2023/11/20 03:47:49;;;;;;;2.63;1.50;;;10.50;99.90;;;;;;6220605;23;20859;-59
2023/11/20 03:50:16;;;;;;;3.60;1.53;;;10.50;99.90;;;;;;6217657;23;20428;-60
2023/11/20 03:52:44;;;;;;;2.67;1.87;;;10.50;99.90;;;;;;6217741;23;20436;-61
2023/11/20 03:55:11;;;;;;;4.10;1.53;;;10.50;99.90;;;;;;6219829;23;20705;-61
2023/11/20 03:57:39;;;;;;;3.07;1.40;;;10.50;99.90;;;;;;6223938;23;20408;-59
2023/11/20 04:00:07;;;;;;;6.57;1.50;;;10.50;99.90;;;;;;6223721;23;20894;-61
2023/11/20 04:02:34;;;;;;;7.53;1.60;;;10.50;99.90;;;;;;6222801;23;20446;-60
2023/11/20 04:05:01;;;;;;;7.27;2.27;;;10.50;99.90;;;;;;6217994;23;20399;-60
2023/11/20 04:07:28;;;;;;;2.43;2.23;;;10.60;99.90;;;;;;6217417;23;20511;-60
2023/11/20 04:09:55;;;;;;;3.67;1.60;;;10.50;99.90;;;;;;6217516;23;20463;-59
2023/11/20 04:12:22;;;;;;;2.90;1.10;;;10.50;99.90;;;;;;6217452;23;20470;-59
2023/11/20 04:14:50;;;;;;;7.43;2.37;;;10.50;99.90;;;;;;6217659;23;20458;-58
2023/11/20 04:17:17;;;;;;;5.27;1.50;;;10.50;99.90;;;;;;6217465;23;20763;-61
2023/11/20 04:19:44;;;;;;;4.47;1.63;;;10.50;99.90;;;;;;6217725;23;20428;-61
2023/11/20 04:22:11;;;;;;;3.33;1.33;;;10.50;99.90;;;;;;6217694;23;20459;-58
2023/11/20 04:24:38;;;;;;;4.10;2.07;;;10.50;99.90;;;;;;6217829;23;20399;-62
2023/11/20 04:27:06;;;;;;;2.30;1.10;;;10.50;99.90;;;;;;6217808;23;20432;-61
2023/11/20 04:29:32;;;;;;;2.70;1.40;;;10.40;99.90;;;;;;6217206;23;20502;-60
2023/11/20 04:32:01;;;;;;;4.13;1.47;;;10.40;99.90;;;;;;6217356;23;20938;-61
2023/11/20 04:34:27;;;;;;;3.10;1.67;;;10.40;99.90;;;;;;6217715;23;20400;-61
2023/11/20 04:36:54;;;;;;;4.80;1.40;;;10.40;99.90;;;;;;6217491;23;20503;-59
2023/11/20 04:39:21;;;;;;;2.10;1.33;;;10.50;99.90;;;;;;6217547;23;20404;-59
2023/11/20 04:41:48;;;;;;;2.83;1.67;;;10.40;99.90;;;;;;6217162;23;20435;-64
2023/11/20 04:44:15;;;;;;;5.33;1.87;;;10.40;99.90;;;;;;6217111;23;20957;-62
2023/11/20 04:46:42;;;;;;;4.10;1.73;;;10.40;99.90;;;;;;6217101;23;20890;-59
2023/11/20 04:49:11;;;;;;;2.17;1.63;;;10.40;99.90;;;;;;6217580;23;20427;-60
2023/11/20 04:51:38;;;;;;;5.40;1.93;;;10.40;99.90;;;;;;6217390;23;20424;-61
2023/11/20 04:54:05;;;;;;;3.47;2.20;;;10.40;99.90;;;;;;6217490;23;20400;-61
2023/11/20 04:56:32;;;;;;;8.43;2.03;;;10.40;99.90;;;;;;6217424;23;20431;-58
2023/11/20 04:58:59;;;;;;;7.63;1.87;;;10.40;99.90;;;;;;6217032;23;20435;-60
2023/11/20 05:01:26;;;;;;;5.53;1.83;;;10.40;99.90;;;;;;6217262;23;20440;-60
2023/11/20 05:03:53;;;;;;;2.17;1.30;;;10.40;99.90;;;;;;6217071;23;20385;-62
2023/11/20 05:06:21;;;;;;;3.67;1.63;;;10.40;99.90;;;;;;6217297;23;20404;-60
2023/11/20 05:08:49;;;;;;;3.17;1.30;;;10.50;99.90;;;;;;6217376;23;20479;-60
2023/11/20 05:11:16;;;;;;;1.83;1.37;;;10.50;99.90;;;;;;6217221;23;20454;-61
2023/11/20 05:13:43;;;;;;;3.90;1.50;;;10.50;99.90;;;;;;6216920;23;20444;-60
2023/11/20 05:16:11;;;;;;;2.17;1.40;;;10.50;99.90;;;;;;6216707;23;20404;-60
2023/11/20 05:18:38;;;;;;;4.63;2.23;;;10.50;99.90;;;;;;6217570;23;20404;-60
2023/11/20 05:21:06;;;;;;;6.50;1.80;;;10.50;99.90;;;;;;6216768;23;20476;-60
2023/11/20 05:23:34;;;;;;;4.67;1.70;;;10.50;99.90;;;;;;6217123;23;20412;-59
2023/11/20 05:26:01;;;;;;;6.80;2.07;;;10.60;99.90;;;;;;6216935;23;20404;-62
2023/11/20 05:28:29;;;;;;;5.27;2.57;;;10.60;99.90;;;;;;6217519;23;20704;-59
2023/11/20 05:30:55;;;;;;;5.63;2.10;;;10.60;99.90;;;;;;6216535;23;20404;-61
2023/11/20 05:33:23;;;;;;;4.67;2.17;;;10.60;99.90;;;;;;6216665;23;20498;-60
2023/11/20 05:35:50;;;;;;;4.30;2.47;;;10.60;99.90;;;;;;6216964;23;20396;-61
2023/11/20 05:38:17;;;;;;;5.37;2.87;;;10.60;99.90;;;;;;6216633;23;20436;-59
2023/11/20 05:40:46;;;;;;;6.40;1.90;;;10.60;99.90;;;;;;6217089;23;20503;-61
2023/11/20 05:43:13;;;;;;;6.10;2.60;;;10.60;99.90;;;;;;6216695;23;20629;-61
2023/11/20 05:45:40;;;;;;;3.20;1.97;;;10.60;99.90;;;;;;6217058;23;20442;-60
2023/11/20 05:48:07;;;;;;;5.93;3.27;;;10.60;99.90;;;;;;6216902;23;20427;-59
2023/11/20 05:50:33;;;;;;;3.43;2.20;;;10.60;99.90;;;;;;6216518;23;20415;-60
2023/11/20 05:53:00;;;;;;;2.90;2.10;;;10.60;99.90;;;;;;6216648;23;20396;-57
2023/11/20 05:55:29;;;;;;;2.10;1.70;;;10.60;99.90;;;;;;6216443;23;21005;-59
2023/11/20 05:57:59;;;;;;;3.33;2.30;;;10.60;99.90;;;;;;6216648;23;20412;-59
2023/11/20 06:00:27;;;;;;;3.47;2.47;;;10.60;99.90;;;;;;6216912;23;20392;-59
2023/11/20 06:02:54;;;;;;;5.37;2.40;;;10.70;99.90;;;;;;6216369;23;20510;-61
2023/11/20 06:05:21;;;;;;;3.90;2.03;;;10.70;99.90;;;;;;6216818;23;20427;-60
2023/11/20 06:07:48;;;;;;;8.47;3.00;;;10.70;99.90;;;;;;6216867;23;20404;-60
2023/11/20 06:10:14;;;;;;;3.30;2.20;;;10.70;99.90;;;;;;6216442;23;20455;-60
2023/11/20 06:12:41;;;;;;;5.20;2.97;;;10.70;99.90;;;;;;6216525;23;20427;-59
2023/11/20 06:15:10;;;;;;;5.10;2.80;;;10.70;99.90;;;;;;6216557;23;20404;-60
2023/11/20 06:17:38;;;;;;;2.47;1.93;;;10.70;99.90;;;;;;6216816;23;20458;-61
2023/11/20 06:20:08;;;;;;;3.80;2.00;;;10.70;99.90;;;;;;6216795;23;20433;-63
2023/11/20 06:22:35;;;;;;;3.10;2.30;;;10.80;99.90;;;;;;6216953;23;20474;-61
2023/11/20 06:25:03;;;;;;;4.40;2.20;;;10.70;99.90;;;;;;6216687;23;20487;-61
2023/11/20 06:27:31;;;;;;;3.33;2.60;;;10.70;99.90;;;;;;6216746;23;20905;-60
2023/11/20 06:29:58;;;;;;;3.03;1.90;;;10.80;99.90;;;;;;6216895;23;20890;-59
2023/11/20 06:32:26;;;;;;;4.40;1.97;;;10.80;99.90;;;;;;6216810;23;20438;-59
2023/11/20 06:34:53;;;;;;;4.80;2.20;;;10.80;99.90;;;;;;6216528;23;20411;-62
2023/11/20 06:37:21;;;;;;;3.37;2.13;;;10.80;99.90;;;;;;6216800;23;20507;-60
2023/11/20 06:39:48;;;;;;;8.83;2.83;;;10.80;99.90;;;;;;6216753;23;20478;-59
2023/11/20 06:42:15;;;;;;;3.47;2.37;;;10.80;99.90;;;;;;6217599;23;20436;-61
2023/11/20 06:44:42;;;;;;;2.20;1.67;;;10.80;99.90;;;;;;6218549;23;20403;-62
2023/11/20 06:47:08;;;;;;;2.80;2.17;;;10.80;99.90;;;;;;6218966;23;20442;-61
2023/11/20 06:49:37;;;;;;;3.97;2.27;;;10.80;99.90;;;;;;6218292;23;20423;-62
2023/11/20 06:52:04;;;;;;;4.03;2.57;;;10.80;99.90;;;;;;6218956;23;20438;-61
2023/11/20 06:54:31;;;;;;;4.90;2.97;;;10.80;99.90;;;;;;6218531;23;20459;-61
2023/11/20 06:56:58;;;;;;;3.47;2.57;;;10.80;99.90;;;;;;6218767;23;20431;-61
2023/11/20 06:59:26;;;;;;;3.10;1.93;;;10.90;99.90;;;;;;6218535;23;20502;-61
2023/11/20 07:01:53;;;;;;;2.07;1.87;;;10.90;99.90;;;;;;6218826;23;20445;-58
2023/11/20 07:04:20;;;;;;;3.63;2.70;;;10.90;99.90;;;;;;6218764;23;20438;-59
2023/11/20 07:06:49;;;;;;;4.23;2.00;;;10.90;99.90;;;;;;6218901;23;20450;-60
2023/11/20 07:09:17;;;;;;;2.63;1.97;;;10.90;99.90;;;;;;6218348;23;20428;-64
2023/11/20 07:11:44;;;;;;;3.10;2.53;;;10.90;99.90;;;;;;6218805;23;20404;-58
2023/11/20 07:14:11;;;;;;;4.80;2.13;;;10.90;99.90;;;;;;6218601;23;20478;-62
2023/11/20 07:16:41;;;;;;;5.10;4.60;;;10.90;99.90;;;;;;6218111;23;20411;-62
2023/11/20 07:19:08;;;;;;;10.53;3.10;;;10.90;99.90;;;;;;6218032;23;20403;-61
2023/11/20 07:21:35;;;;;;;5.00;2.60;;;10.90;99.90;;;;;;6218547;23;20388;-61
2023/11/20 07:24:04;;;;;;;4.30;3.10;;;11.00;99.90;;;;;;6218120;23;20400;-61
2023/11/20 07:26:31;;;;;;;6.50;2.80;;;11.00;99.90;;;;;;6218171;23;20443;-61
2023/11/20 07:28:58;;;;;;;3.93;3.07;;;11.00;99.90;;;;;;6218142;23;20447;-61
2023/11/20 07:31:25;;;;;;;3.53;2.77;;;11.00;99.90;;;;;;6218526;23;20442;-59
2023/11/20 07:33:52;;;;;;;4.87;3.13;;;11.10;99.90;;;;;;6218592;23;20400;-64
2023/11/20 07:36:20;;;;;;;3.93;2.70;;;11.10;99.90;;;;;;6218169;23;20407;-61
2023/11/20 07:38:47;;;;;;;5.90;2.80;;;11.10;99.90;;;;;;6218086;23;20440;-60
2023/11/20 07:41:16;;;;;;;5.10;3.57;;;11.10;99.90;;;;;;6218174;23;20431;-60
2023/11/20 07:43:43;;;;;;;8.03;2.43;;;11.10;99.90;;;;;;6217931;23;20505;-60
2023/11/20 07:46:10;;;;;;;3.50;3.10;;;11.10;99.90;;;;;;6218257;23;20768;-61
2023/11/20 07:48:37;;;;;;;6.20;3.27;;;11.10;99.90;;;;;;6218030;23;20771;-60
2023/11/20 07:51:04;;;;;;;3.60;2.83;;;11.10;99.90;;;;;;6218498;23;20455;-61
2023/11/20 07:53:31;;;;;;;4.20;2.73;;;11.10;99.90;;;;;;6217569;23;20431;-60
2023/11/20 07:55:58;;;;;;;4.53;3.50;;;11.20;99.90;;;;;;6218217;23;20455;-61
2023/11/20 07:58:27;;;;;;;4.00;3.23;;;11.20;99.90;;;;;;6217840;23;20418;-62
2023/11/20 08:00:54;;;;;;;6.00;3.57;;;11.20;99.90;;;;;;6217848;23;20511;-62
2023/11/20 08:03:21;;;;;;;3.83;2.93;;;11.20;99.90;;;;;;6217982;23;20515;-62
2023/11/20 08:05:47;;;;;;;4.07;2.80;;;11.30;99.90;;;;;;6218177;23;20905;-61
2023/11/20 08:08:14;;;;;;;3.10;2.40;;;11.30;99.90;;;;;;6218121;23;20400;-62
2023/11/20 08:10:41;;;;;;;3.67;2.87;;;11.30;99.90;;;;;;6218154;23;20883;-60
2023/11/20 08:13:08;;;;;;;6.60;3.03;;;11.20;99.90;;;;;;6218063;23;20447;-60
2023/11/20 08:15:36;;;;;;;4.60;2.43;;;11.30;99.90;;;;;;6218109;23;20436;-61
2023/11/20 08:18:03;;;;;;;4.60;2.93;;;11.30;99.90;;;;;;6217655;23;20420;-59
2023/11/20 08:20:30;;;;;;;4.53;3.03;;;11.30;99.90;;;;;;6217692;23;20412;-59
2023/11/20 08:22:57;;;;;;;4.00;3.30;;;11.30;99.90;;;;;;6217362;23;20954;-60
2023/11/20 08:25:25;;;;;;;4.30;2.67;;;11.30;99.90;;;;;;6218150;23;20384;-59
2023/11/20 08:27:52;;;;;;;5.23;3.90;;;11.30;99.90;;;;;;6218144;23;20404;-60
2023/11/20 08:30:19;;;;;;;6.53;3.00;;;11.30;99.90;;;;;;6218282;23;20482;-62
2023/11/20 08:32:47;;;;;;;4.27;3.40;;;11.30;99.90;;;;;;6217563;23;20554;-61
2023/11/20 08:35:14;;;;;;;3.97;3.30;;;11.30;99.90;;;;;;6217373;23;20424;-63
2023/11/20 08:37:42;;;;;;;4.00;2.90;;;11.30;99.90;;;;;;6217844;23;20755;-62
2023/11/20 08:40:09;;;;;;;7.80;3.40;;;11.40;99.90;;;;;;6217735;23;20535;-61
2023/11/20 08:42:36;;;;;;;5.47;3.10;;;11.40;99.90;;;;;;6217478;23;20490;-62
2023/11/20 08:45:05;;;;;;;4.90;3.87;;;11.50;99.90;;;;;;6217375;23;20438;-61
2023/11/20 08:47:34;;;;;;;4.63;3.60;;;11.40;99.90;;;;;;6217424;23;20396;-62
2023/11/20 08:50:03;;;;;;;4.63;2.90;;;11.40;99.90;;;;;;6217612;23;20499;-61
2023/11/20 08:52:30;;;;;;;4.10;3.20;;;11.50;99.90;;;;;;6217914;23;20507;-60
2023/11/20 08:54:57;;;;;;;3.60;3.10;;;11.40;99.90;;;;;;6217513;23;20403;-60
2023/11/20 08:57:24;;;;;;;4.10;2.90;;;11.50;99.90;;;;;;6217280;23;20467;-60
2023/11/20 08:59:51;;;;;;;4.17;2.57;;;11.50;99.90;;;;;;6220679;23;20458;-60
2023/11/20 09:02:18;;;;;;;2.90;2.33;;;11.50;99.90;;;;;;6217920;23;20440;-59
2023/11/20 09:04:44;;;;;;;4.43;2.37;;;11.50;99.90;;;;;;6217510;23;20700;-61
2023/11/20 09:07:13;;;;;;;7.37;3.70;;;11.40;99.90;;;;;;6217524;23;20479;-59
2023/11/20 09:09:41;;;;;;;4.50;2.80;;;11.40;99.90;;;;;;6217687;23;20681;-62
2023/11/20 09:12:09;;;;;;;4.67;3.70;;;11.40;99.90;;;;;;6217612;23;20755;-59
2023/11/20 09:14:36;;;;;;;6.83;4.20;;;11.40;99.90;;;;;;6217333;23;20428;-61
2023/11/20 09:17:03;;;;;;;6.30;4.17;;;11.30;99.90;;;;;;6217282;23;20414;-61
2023/11/20 09:19:30;;;;;;;6.57;3.63;;;11.40;99.90;;;;;;6217442;23;20478;-62
2023/11/20 09:21:57;;;;;;;3.30;2.90;;;11.40;99.90;;;;;;6217381;23;20404;-61
2023/11/20 09:24:25;;;;;;;4.10;3.30;;;11.40;99.90;;;;;;6217058;23;20877;-59
2023/11/20 09:26:52;;;;;;;4.07;2.83;;;11.40;99.90;;;;;;6217082;23;20400;-59
2023/11/20 09:29:19;;;;;;;9.07;3.20;;;11.50;99.90;;;;;;6217403;23;20399;-60
2023/11/20 09:31:47;;;;;;;4.20;3.10;;;11.50;99.90;;;;;;6216411;23;20910;-61
2023/11/20 09:34:15;;;;;;;4.17;2.83;;;11.50;99.90;;;;;;6217177;23;20482;-62
2023/11/20 09:36:43;;;;;;;6.43;3.67;;;11.50;99.90;;;;;;6217419;23;20929;-63
2023/11/20 09:39:13;;;;;;;4.60;3.40;;;11.50;99.90;;;;;;6217382;23;20490;-61
2023/11/20 09:41:43;;;;;;;7.03;4.07;;;11.50;99.90;;;;;;6217197;23;20750;-63
2023/11/20 09:44:12;;;;;;;5.87;3.63;;;11.50;99.90;;;;;;6217246;23;20434;-60
2023/11/20 09:46:41;;;;;;;5.00;3.67;;;11.60;99.90;;;;;;6217302;23;20404;-60
2023/11/20 09:49:09;;;;;;;5.77;4.00;;;11.70;99.90;;;;;;6217072;23;20470;-60
2023/11/20 09:51:37;;;;;;;7.00;4.10;;;11.70;99.90;;;;;;6216911;23;20407;-62
2023/11/20 09:54:08;;;;;;;9.13;4.40;;;11.70;99.90;;;;;;6217051;23;20511;-61
2023/11/20 09:56:36;;;;;;;7.10;3.80;;;11.80;99.90;;;;;;6216862;23;20644;-60
2023/11/20 09:59:04;;;;;;;5.53;3.97;;;11.80;99.90;;;;;;6216608;23;20436;-61
2023/11/20 10:01:31;;;;;;;4.30;3.67;;;11.90;99.90;;;;;;6217254;23;20384;-60
2023/11/20 10:03:59;;;;;;;7.33;4.17;;;12.00;99.90;;;;;;6216639;23;20471;-59
2023/11/20 10:06:31;;;;;;;6.23;4.30;;;12.00;99.90;;;;;;6217219;23;20404;-60
2023/11/20 10:08:58;;;;;;;8.83;4.70;;;12.10;99.90;;;;;;6217031;23;20389;-62
2023/11/20 10:11:24;;;;;;;12.73;4.07;;;12.10;99.90;;;;;;6217113;23;20427;-62
2023/11/20 10:13:52;;;;;;;6.47;4.17;;;12.10;99.90;;;;;;6216913;23;20423;-60
2023/11/20 10:16:22;;;;;;;5.27;4.50;;;12.10;99.90;;;;;;6216695;23;20427;-62
2023/11/20 10:18:49;;;;;;;6.73;4.30;;;12.10;99.90;;;;;;6218823;23;20480;-61
2023/11/20 10:21:19;;;;;;;7.60;3.50;;;12.10;99.90;;;;;;6218866;23;20414;-60
2023/11/20 10:23:46;;;;;;;7.73;4.47;;;12.10;99.90;;;;;;6219160;23;20493;-61
2023/11/20 10:26:13;;;;;;;5.93;4.30;;;12.10;99.90;;;;;;6219198;23;20673;-61
2023/11/20 10:28:41;;;;;;;6.50;4.07;;;12.10;99.90;;;;;;6219126;23;20432;-62
2023/11/20 10:31:08;;;;;;;9.47;5.67;;;12.10;99.90;;;;;;6218505;23;20989;-61
2023/11/20 10:33:37;;;;;;;4.73;3.53;;;12.10;99.90;;;;;;6218635;23;20882;-61
2023/11/20 10:36:12;;;;;;;5.27;4.30;;;12.20;99.90;;;;;;6219048;23;20474;-61
2023/11/20 10:38:39;;;;;;;6.70;4.50;;;12.20;99.90;;;;;;6218918;23;20446;-62
2023/11/20 10:41:10;;;;;;;5.27;3.87;;;12.20;99.90;;;;;;6217294;23;20490;-61
2023/11/20 10:43:38;;;;;;;5.13;3.17;;;12.20;99.90;;;;;;6218469;23;20463;-60
2023/11/20 10:46:05;;;;;;;6.90;3.83;;;12.20;99.90;;;;;;6219048;23;20459;-60
2023/11/20 10:48:33;;;;;;;6.17;4.27;;;12.20;99.90;;;;;;6218587;23;20446;-60
2023/11/20 10:51:07;;;;;;;4.10;3.27;;;12.20;99.90;;;;;;6218298;23;20427;-60
2023/11/20 10:53:39;;;;;;;6.80;3.67;;;12.30;99.90;;;;;;6219906;23;20725;-62
2023/11/20 10:56:08;;;;;;;6.90;4.37;;;12.30;99.90;;;;;;6218681;23;20391;-63
2023/11/20 10:58:35;;;;;;;3.97;3.30;;;12.30;99.90;;;;;;6218460;23;20502;-65
2023/11/20 11:01:03;;;;;;;5.53;3.87;;;12.40;99.90;;;;;;6218662;23;20453;-61
2023/11/20 11:03:31;;;;;;;4.17;3.27;;;12.40;99.90;;;;;;6218836;23;20517;-62
2023/11/20 11:06:09;;;;;;;4.10;3.10;;;12.30;99.90;;;;;;6218988;23;20399;-62
2023/11/20 11:08:38;;;;;;;4.00;3.50;;;12.30;99.90;;;;;;6218748;23;20395;-63
2023/11/20 11:11:06;;;;;;;6.43;3.60;;;12.30;99.90;;;;;;6219246;23;20392;-64
2023/11/20 11:13:36;;;;;;;5.43;4.00;;;12.30;99.90;;;;;;6219063;23;20466;-61
2023/11/20 11:16:07;;;;;;;5.63;3.70;;;12.20;99.90;;;;;;6218714;23;20415;-64
2023/11/20 11:18:36;;;;;;;5.97;3.70;;;12.20;99.90;;;;;;6219038;23;20449;-60
2023/11/20 11:21:08;;;;;;;10.90;4.47;;;12.20;99.90;;;;;;6219113;23;20424;-63
2023/11/20 11:23:41;;;;;;;6.20;4.43;;;12.20;99.90;;;;;;6218388;23;20416;-62
2023/11/20 11:26:26;;;;;;;11.37;3.50;;;12.20;99.90;;;;;;6218801;23;20424;-63
2023/11/20 11:28:58;;;;;;;7.90;3.87;;;12.20;99.90;;;;;;6217848;23;20479;-62
2023/11/20 11:31:35;;;;;;;4.63;3.20;;;12.20;99.90;;;;;;6218213;23;20439;-66
2023/11/20 11:34:26;;;;;;;4.60;3.37;;;12.20;99.90;;;;;;6219060;23;20396;-63
2023/11/20 11:37:04;;;;;;;15.00;2.87;;;12.10;99.90;;;;;;6218525;23;20399;-62
2023/11/20 11:39:37;;;;;;;6.67;4.50;;;12.40;99.90;;;;;;6218555;23;20438;-61
2023/11/20 11:42:11;;;;;;;6.07;4.10;;;12.90;99.90;;;;;;6218396;23;20384;-61
2023/11/20 11:44:46;;;;;;;6.70;3.50;;;12.70;99.90;;;;;;6218532;23;20435;-61
2023/11/20 11:47:15;;;;;;;7.00;4.57;;;12.50;99.90;;;;;;6218451;23;20384;-63
2023/11/20 11:49:49;;;;;;;6.53;4.87;;;12.40;99.90;;;;;;6218088;23;20428;-62
2023/11/20 11:52:25;;;;;;;5.80;4.87;;;12.40;99.90;;;;;;6217846;23;20941;-60
2023/11/20 11:55:21;;;;;;;5.23;4.30;;;12.30;99.90;;;;;;6217787;23;20431;-61
2023/11/20 11:57:53;;;;;;;12.70;4.77;;;12.30;99.90;;;;;;6217885;23;20407;-63
2023/11/20 12:00:22;;;;;;;6.70;4.97;;;12.30;99.90;;;;;;6217951;23;20423;-64
2023/11/20 12:02:57;;;;;;;5.83;4.33;;;12.20;99.90;;;;;;6218363;23;20479;-62
2023/11/20 12:05:24;;;;;;;6.60;4.40;;;12.20;99.90;;;;;;6218496;23;20466;-63
2023/11/20 12:07:55;;;;;;;6.63;5.10;;;12.20;99.90;;;;;;6217512;23;20424;-63
2023/11/20 12:10:43;;;;;;;5.30;4.00;;;12.20;99.90;;;;;;6217965;23;20487;-65
2023/11/20 12:13:12;;;;;;;9.00;4.97;;;12.20;99.90;;;;;;6218251;23;20494;-62
2023/11/20 12:15:42;;;;;;;7.40;5.40;;;12.20;99.90;;;;;;6218569;23;20404;-62
2023/11/20 12:18:13;;;;;;;5.97;4.47;;;12.20;99.90;;;;;;6218603;23;20450;-63
2023/11/20 12:20:42;;;;;;;10.73;5.17;;;12.20;99.90;;;;;;6218280;23;20858;-63
2023/11/20 12:23:20;;;;;;;9.30;5.33;;;12.20;99.90;;;;;;6219033;23;20404;-63
2023/11/20 12:25:49;;;;;;;8.33;4.97;;;12.20;99.90;;;;;;6217988;23;20914;-65
2023/11/20 12:28:16;;;;;;;8.17;5.50;;;12.20;99.90;;;;;;6218063;23;20930;-63
2023/11/20 12:30:44;;;;;;;7.00;6.00;;;12.20;99.90;;;;;;6218394;23;20403;-67
2023/11/20 12:33:11;;;;;;;8.40;5.63;;;12.20;99.90;;;;;;6218365;23;20414;-63
2023/11/20 12:35:39;;;;;;;7.13;5.10;;;12.20;99.90;;;;;;6218463;23;20411;-63
2023/11/20 12:38:06;;;;;;;9.83;5.77;;;12.30;99.90;;;;;;6218392;23;20430;-62
2023/11/20 12:40:35;;;;;;;4.50;2.87;;;12.20;99.90;;;;;;6218287;23;20415;-63
2023/11/20 12:43:02;;;;;;;4.67;3.43;;;12.20;99.90;;;;;;6218268;23;20466;-63
2023/11/20 12:45:29;;;;;;;5.23;4.10;;;12.20;99.90;;;;;;6218158;23;20400;-65
2023/11/20 12:47:56;;;;;;;5.53;3.47;;;12.20;99.90;;;;;;6218005;23;20725;-63
2023/11/20 12:50:24;;;;;;;5.13;3.23;;;12.20;99.90;;;;;;6217983;23;20467;-62